Time;durP1;ratioP1;P1;durP2;ratioP2;P2;SDS_P1;SDS_P2;PMS_P1;PMS_P2;Temp;Humidity;BMP_temperature;BMP_pressure;BME280_temperature;BME280_humidity;BME280_pressure;Samples;Min_cycle;Max_cycle;Signal;HPM_P1;HPM_P2
2023/08/30 00:02:23;;;;;;;2.63;2.20;;;15.10;99.90;;;;;;5026713;28;20210;-55
2023/08/30 00:04:49;;;;;;;3.80;2.33;;;15.00;99.90;;;;;;5035985;28;20191;-61
2023/08/30 00:07:14;;;;;;;2.63;2.10;;;15.00;99.90;;;;;;5032083;28;20699;-59
2023/08/30 00:09:40;;;;;;;1.83;1.70;;;15.10;99.90;;;;;;5025121;28;20213;-58
2023/08/30 00:12:06;;;;;;;2.63;2.00;;;14.90;99.90;;;;;;5022098;28;20224;-58
2023/08/30 00:14:32;;;;;;;3.43;1.90;;;14.80;99.90;;;;;;5036436;28;20273;-54
2023/08/30 00:16:57;;;;;;;2.20;2.00;;;14.80;99.90;;;;;;5029568;28;20244;-54
2023/08/30 00:19:23;;;;;;;3.20;2.07;;;14.70;99.90;;;;;;5033315;28;20198;-55
2023/08/30 00:21:48;;;;;;;2.37;2.17;;;14.70;99.90;;;;;;5034216;28;20192;-54
2023/08/30 00:24:14;;;;;;;2.57;2.03;;;14.70;99.90;;;;;;5023947;28;20261;-54
2023/08/30 00:26:40;;;;;;;2.07;1.97;;;14.80;99.90;;;;;;5025395;28;20203;-56
2023/08/30 00:29:05;;;;;;;2.70;2.03;;;15.00;99.90;;;;;;5032343;28;20713;-60
2023/08/30 00:31:30;;;;;;;5.17;2.17;;;15.10;99.90;;;;;;5026507;28;20202;-60
2023/08/30 00:33:56;;;;;;;2.90;2.30;;;15.00;99.90;;;;;;5030884;28;20237;-58
2023/08/30 00:36:22;;;;;;;2.37;2.20;;;15.10;99.90;;;;;;5029066;28;20202;-59
2023/08/30 00:38:47;;;;;;;2.37;2.23;;;15.10;99.90;;;;;;5028990;28;20195;-54
2023/08/30 00:41:12;;;;;;;3.63;2.27;;;14.90;99.90;;;;;;5029986;28;20720;-55
2023/08/30 00:43:39;;;;;;;2.40;2.20;;;14.90;99.90;;;;;;5032347;28;20202;-59
2023/08/30 00:46:04;;;;;;;2.70;2.50;;;14.80;99.90;;;;;;5021135;28;20198;-57
2023/08/30 00:48:30;;;;;;;1.90;1.80;;;14.80;99.90;;;;;;5023069;28;20206;-62
2023/08/30 00:50:55;;;;;;;4.10;3.07;;;14.90;99.90;;;;;;5028941;28;20226;-64
2023/08/30 00:53:21;;;;;;;2.10;2.00;;;14.90;99.90;;;;;;5033551;28;20306;-63
2023/08/30 00:55:47;;;;;;;2.50;2.30;;;15.00;99.90;;;;;;5036618;28;20613;-59
2023/08/30 00:58:13;;;;;;;3.33;2.33;;;15.00;99.90;;;;;;5032112;28;20673;-57
2023/08/30 01:00:39;;;;;;;2.70;2.10;;;14.90;99.90;;;;;;5030510;28;20211;-55
2023/08/30 01:03:07;;;;;;;3.67;2.10;;;14.90;99.90;;;;;;5030438;28;20626;-55
2023/08/30 01:05:33;;;;;;;2.93;2.67;;;14.90;99.90;;;;;;5027652;28;20266;-55
2023/08/30 01:07:58;;;;;;;3.67;2.67;;;15.00;99.90;;;;;;5026852;28;20207;-55
2023/08/30 01:11:10;;;;;;;2.70;2.37;;;14.90;99.90;;;;;;5032125;28;20543;-55
2023/08/30 01:13:45;;;;;;;3.90;2.33;;;14.90;99.90;;;;;;5015745;28;20222;-56
2023/08/30 01:16:11;;;;;;;2.53;2.30;;;14.70;99.90;;;;;;5032594;28;20226;-56
2023/08/30 01:18:39;;;;;;;2.40;2.20;;;14.70;99.90;;;;;;5031516;28;20890;-56
2023/08/30 01:21:22;;;;;;;2.80;2.13;;;14.60;99.90;;;;;;5030983;28;20194;-56
2023/08/30 01:24:00;;;;;;;3.10;2.40;;;14.70;99.90;;;;;;5027064;28;20211;-56
2023/08/30 01:26:50;;;;;;;3.40;2.30;;;14.70;99.90;;;;;;5026772;28;20305;-56
2023/08/30 01:29:18;;;;;;;3.80;2.90;;;14.60;99.90;;;;;;5036108;28;20302;-57
2023/08/30 01:31:45;;;;;;;3.00;2.53;;;14.50;99.90;;;;;;5028864;28;20756;-55
2023/08/30 01:34:13;;;;;;;5.57;3.30;;;14.40;99.90;;;;;;5030514;28;20195;-55
2023/08/30 01:36:39;;;;;;;3.17;2.87;;;14.50;99.90;;;;;;5029056;28;20199;-55
2023/08/30 01:39:05;;;;;;;5.00;2.77;;;14.50;99.90;;;;;;5030710;28;20225;-56
2023/08/30 01:41:32;;;;;;;3.07;2.77;;;14.40;99.90;;;;;;5027617;28;20724;-56
2023/08/30 01:43:59;;;;;;;3.20;2.70;;;14.50;99.90;;;;;;5025296;28;20868;-56
2023/08/30 01:46:25;;;;;;;3.03;2.83;;;14.50;99.90;;;;;;5033141;28;20205;-56
2023/08/30 01:48:51;;;;;;;2.63;2.43;;;14.50;99.90;;;;;;5038121;28;20260;-56
2023/08/30 01:51:17;;;;;;;4.23;3.50;;;14.50;99.90;;;;;;5034057;28;20716;-56
2023/08/30 01:53:44;;;;;;;2.60;2.40;;;14.50;99.90;;;;;;5029124;28;20210;-56
2023/08/30 01:56:10;;;;;;;3.30;2.40;;;14.60;99.90;;;;;;5026960;28;20219;-55
2023/08/30 01:58:36;;;;;;;3.90;2.63;;;14.60;99.90;;;;;;5026801;28;20295;-56
2023/08/30 02:01:01;;;;;;;2.43;2.23;;;14.60;99.90;;;;;;5027857;28;20293;-56
2023/08/30 02:03:27;;;;;;;2.40;2.20;;;14.60;99.90;;;;;;5031602;28;20426;-56
2023/08/30 02:06:11;;;;;;;2.90;2.70;;;14.50;99.90;;;;;;5034308;28;20282;-55
2023/08/30 02:08:59;;;;;;;2.20;2.03;;;14.60;99.90;;;;;;5030213;28;20282;-55
2023/08/30 02:11:27;;;;;;;2.50;2.30;;;14.60;99.90;;;;;;5031563;28;20205;-55
2023/08/30 02:13:56;;;;;;;2.83;2.47;;;14.50;99.90;;;;;;5029156;28;20253;-55
2023/08/30 02:16:23;;;;;;;2.10;2.00;;;14.50;99.90;;;;;;5027727;28;20204;-54
2023/08/30 02:18:50;;;;;;;2.53;2.37;;;14.40;99.90;;;;;;5030945;28;20195;-56
2023/08/30 02:21:15;;;;;;;3.37;2.63;;;14.40;99.90;;;;;;5034768;28;20298;-56
2023/08/30 02:23:41;;;;;;;3.13;2.50;;;14.50;99.90;;;;;;5032242;28;20290;-55
2023/08/30 02:26:06;;;;;;;4.13;2.63;;;14.40;99.90;;;;;;5032334;28;21042;-56
2023/08/30 02:28:32;;;;;;;3.10;2.80;;;14.30;99.90;;;;;;5026327;28;20253;-56
2023/08/30 02:30:57;;;;;;;3.43;2.63;;;14.30;99.90;;;;;;5036074;28;20904;-55
2023/08/30 02:33:23;;;;;;;3.23;2.97;;;14.30;99.90;;;;;;5024964;28;20302;-55
2023/08/30 02:35:48;;;;;;;2.93;2.73;;;14.30;99.90;;;;;;5037028;28;20785;-54
2023/08/30 02:38:14;;;;;;;3.83;3.10;;;14.40;99.90;;;;;;5039548;28;20217;-55
2023/08/30 02:40:39;;;;;;;3.10;2.80;;;14.50;99.90;;;;;;5037221;28;20195;-55
2023/08/30 02:43:05;;;;;;;2.60;2.40;;;14.60;99.90;;;;;;5026291;28;20226;-54
2023/08/30 02:45:30;;;;;;;3.13;2.83;;;14.50;99.90;;;;;;5027205;28;20191;-55
2023/08/30 02:47:59;;;;;;;2.47;2.27;;;14.60;99.90;;;;;;5030419;28;20199;-56
2023/08/30 02:50:25;;;;;;;3.33;3.03;;;14.60;99.90;;;;;;5030491;28;20705;-56
2023/08/30 02:52:51;;;;;;;3.30;3.00;;;14.30;99.90;;;;;;5025992;28;20225;-56
2023/08/30 02:55:16;;;;;;;4.50;3.53;;;14.20;99.90;;;;;;5029194;28;20793;-56
2023/08/30 02:57:42;;;;;;;5.70;3.47;;;14.20;99.90;;;;;;5033525;28;20278;-56
2023/08/30 03:00:08;;;;;;;5.00;3.83;;;14.20;99.90;;;;;;5029517;28;20515;-56
2023/08/30 03:02:34;;;;;;;3.90;3.60;;;14.30;99.90;;;;;;5036047;28;20608;-55
2023/08/30 03:05:00;;;;;;;3.50;3.20;;;14.30;99.90;;;;;;5033857;28;20698;-56
2023/08/30 03:07:28;;;;;;;8.57;3.23;;;14.40;99.90;;;;;;5035901;28;20280;-56
2023/08/30 03:09:53;;;;;;;3.10;2.90;;;14.50;99.90;;;;;;5035353;28;20222;-56
2023/08/30 03:12:19;;;;;;;3.37;3.07;;;14.50;99.90;;;;;;5029408;28;20270;-56
2023/08/30 03:14:44;;;;;;;3.77;3.47;;;14.50;99.90;;;;;;5036052;28;20667;-55
2023/08/30 03:17:10;;;;;;;3.30;3.03;;;14.40;99.90;;;;;;5037588;28;20280;-56
2023/08/30 03:19:36;;;;;;;4.20;3.90;;;14.20;99.90;;;;;;5035194;28;20229;-57
2023/08/30 03:22:02;;;;;;;9.20;4.37;;;14.20;99.90;;;;;;5033644;28;20203;-56
2023/08/30 03:24:27;;;;;;;4.50;4.10;;;14.20;99.90;;;;;;5033425;28;20210;-56
2023/08/30 03:26:52;;;;;;;3.77;3.47;;;14.30;99.90;;;;;;5034676;28;20713;-56
2023/08/30 03:29:18;;;;;;;3.63;3.33;;;14.40;99.90;;;;;;5032513;28;20217;-56
2023/08/30 03:31:43;;;;;;;4.23;3.83;;;14.40;99.90;;;;;;5030745;28;20198;-56
2023/08/30 03:34:09;;;;;;;4.33;3.93;;;14.50;99.90;;;;;;5028539;28;20195;-56
2023/08/30 03:36:34;;;;;;;5.70;4.40;;;14.40;99.90;;;;;;5025109;28;20665;-57
2023/08/30 03:39:00;;;;;;;5.23;4.13;;;14.30;99.90;;;;;;5030159;28;20545;-56
2023/08/30 03:41:26;;;;;;;5.03;4.10;;;14.30;99.90;;;;;;5025847;28;20222;-56
2023/08/30 03:43:52;;;;;;;5.60;4.97;;;14.10;99.90;;;;;;5027667;28;20198;-57
2023/08/30 03:46:17;;;;;;;4.77;4.37;;;14.20;99.90;;;;;;5030492;28;20699;-56
2023/08/30 03:48:43;;;;;;;5.07;4.57;;;14.00;99.90;;;;;;5031763;28;20203;-57
2023/08/30 03:51:08;;;;;;;5.67;5.17;;;13.90;99.90;;;;;;5030898;28;20210;-57
2023/08/30 03:53:34;;;;;;;5.60;4.47;;;14.00;99.90;;;;;;5031015;28;20899;-56
2023/08/30 03:55:59;;;;;;;5.50;5.03;;;14.00;99.90;;;;;;5028749;28;20214;-55
2023/08/30 03:58:25;;;;;;;9.53;4.20;;;14.00;99.90;;;;;;5035715;28;20688;-56
2023/08/30 04:00:50;;;;;;;4.83;4.40;;;14.00;99.90;;;;;;5035844;28;20240;-56
2023/08/30 04:03:16;;;;;;;5.07;4.40;;;14.00;99.90;;;;;;5037760;28;20690;-57
2023/08/30 04:05:42;;;;;;;6.50;4.87;;;14.00;99.90;;;;;;5034607;28;20252;-66
2023/08/30 04:08:08;;;;;;;6.47;4.23;;;14.10;99.90;;;;;;5031691;28;20261;-59
2023/08/30 04:10:47;;;;;;;4.40;4.00;;;14.20;99.90;;;;;;5025531;28;20529;-58
2023/08/30 04:13:12;;;;;;;4.10;3.70;;;14.30;99.90;;;;;;5028292;28;20847;-65
2023/08/30 04:15:39;;;;;;;4.67;4.17;;;14.40;99.90;;;;;;5028275;28;20215;-52
2023/08/30 04:18:06;;;;;;;4.27;3.93;;;14.40;99.90;;;;;;5031366;28;21214;-56
2023/08/30 04:20:32;;;;;;;4.10;3.60;;;14.40;99.90;;;;;;5030947;28;20203;-56
2023/08/30 04:23:01;;;;;;;5.53;4.00;;;14.50;99.90;;;;;;5032045;28;20993;-55
2023/08/30 04:25:27;;;;;;;5.30;4.03;;;14.30;99.90;;;;;;5033286;28;20206;-55
2023/08/30 04:27:52;;;;;;;5.13;4.20;;;14.30;99.90;;;;;;5035801;28;20206;-56
2023/08/30 04:30:18;;;;;;;4.40;4.10;;;14.30;99.90;;;;;;5033510;28;20233;-56
2023/08/30 04:32:43;;;;;;;4.27;3.97;;;14.40;99.90;;;;;;5037814;28;20218;-56
2023/08/30 04:35:09;;;;;;;5.90;5.37;;;14.50;99.90;;;;;;5030039;28;20210;-55
2023/08/30 04:37:35;;;;;;;4.60;4.17;;;14.70;99.90;;;;;;5036804;28;20375;-55
2023/08/30 04:40:00;;;;;;;4.60;4.20;;;14.70;99.90;;;;;;5034884;28;20230;-54
2023/08/30 04:42:26;;;;;;;4.40;4.10;;;14.70;99.90;;;;;;5034149;28;20352;-55
2023/08/30 04:44:54;;;;;;;4.80;4.13;;;14.70;99.90;;;;;;5023158;28;20672;-54
2023/08/30 04:47:20;;;;;;;4.50;4.10;;;14.80;99.90;;;;;;5030269;28;20191;-55
2023/08/30 04:49:51;;;;;;;5.83;4.20;;;14.80;99.90;;;;;;5027685;28;20246;-55
2023/08/30 04:52:16;;;;;;;4.13;3.53;;;14.70;99.90;;;;;;5030208;28;20226;-55
2023/08/30 04:54:42;;;;;;;4.43;4.07;;;14.80;99.90;;;;;;5031787;28;20982;-55
2023/08/30 04:57:08;;;;;;;4.43;4.03;;;14.70;99.90;;;;;;5025512;28;20229;-55
2023/08/30 04:59:33;;;;;;;4.70;4.30;;;14.70;99.90;;;;;;5024865;28;20191;-55
2023/08/30 05:01:59;;;;;;;5.53;4.47;;;14.60;99.90;;;;;;5031873;28;20227;-56
2023/08/30 05:04:25;;;;;;;5.40;4.70;;;14.80;99.90;;;;;;5034501;28;20204;-56
2023/08/30 05:06:50;;;;;;;4.13;3.73;;;14.90;99.90;;;;;;5020421;28;20419;-56
2023/08/30 05:09:16;;;;;;;5.33;4.00;;;15.00;99.90;;;;;;5033137;28;20203;-56
2023/08/30 05:11:41;;;;;;;10.60;4.60;;;15.20;99.90;;;;;;5029240;28;20199;-55
2023/08/30 05:14:10;;;;;;;6.70;4.67;;;15.30;99.90;;;;;;5030160;28;20294;-56
2023/08/30 05:16:35;;;;;;;4.03;3.73;;;15.30;99.90;;;;;;5028331;28;20912;-56
2023/08/30 05:19:00;;;;;;;3.80;3.50;;;15.30;99.90;;;;;;5031407;28;20285;-56
2023/08/30 05:21:26;;;;;;;3.77;3.50;;;15.30;99.90;;;;;;5031889;28;20665;-56
2023/08/30 05:23:51;;;;;;;3.93;3.63;;;15.40;99.90;;;;;;5037161;28;20188;-55
2023/08/30 05:26:19;;;;;;;4.20;3.73;;;15.50;99.90;;;;;;5030509;28;20282;-55
2023/08/30 05:28:44;;;;;;;3.63;3.33;;;15.50;99.90;;;;;;5028204;28;20210;-55
2023/08/30 05:31:10;;;;;;;3.83;3.53;;;15.70;99.90;;;;;;5024037;28;20203;-55
2023/08/30 05:33:35;;;;;;;4.23;3.93;;;15.80;99.90;;;;;;5027891;28;20210;-55
2023/08/30 05:36:02;;;;;;;4.33;4.03;;;15.80;99.90;;;;;;5024452;28;20282;-54
2023/08/30 05:38:27;;;;;;;6.43;4.10;;;15.80;99.90;;;;;;5033152;28;20206;-54
2023/08/30 05:40:53;;;;;;;8.17;4.00;;;15.70;99.90;;;;;;5030581;28;20572;-54
2023/08/30 05:43:18;;;;;;;6.57;4.93;;;15.60;99.90;;;;;;5024131;28;20674;-55
2023/08/30 05:45:44;;;;;;;5.47;4.97;;;15.50;99.90;;;;;;5024239;28;20202;-55
2023/08/30 05:48:09;;;;;;;5.53;5.00;;;15.70;99.90;;;;;;5028776;28;20291;-55
2023/08/30 05:50:35;;;;;;;6.60;6.00;;;15.90;99.90;;;;;;5034712;28;20939;-55
2023/08/30 05:53:01;;;;;;;6.07;5.53;;;15.70;99.90;;;;;;5036269;28;20211;-56
2023/08/30 05:55:26;;;;;;;5.53;5.03;;;15.80;99.90;;;;;;5034909;28;20772;-56
2023/08/30 05:57:52;;;;;;;8.73;5.60;;;15.70;99.90;;;;;;5034471;28;20203;-58
2023/08/30 06:00:17;;;;;;;5.20;4.70;;;15.90;99.90;;;;;;5035677;28;20191;-59
2023/08/30 06:02:43;;;;;;;5.27;4.77;;;16.00;99.90;;;;;;5039434;28;20245;-55
2023/08/30 06:05:09;;;;;;;6.30;5.03;;;16.10;99.90;;;;;;5033412;28;20198;-57
2023/08/30 06:07:34;;;;;;;6.03;5.17;;;16.00;99.90;;;;;;5029713;28;20200;-57
2023/08/30 06:10:00;;;;;;;9.50;5.10;;;16.10;99.90;;;;;;5035636;28;20264;-58
2023/08/30 06:12:25;;;;;;;5.50;4.93;;;16.20;99.90;;;;;;5029671;28;20236;-71
2023/08/30 06:14:52;;;;;;;5.33;4.83;;;16.20;99.90;;;;;;5027643;28;20282;-56
2023/08/30 06:17:21;;;;;;;6.00;5.50;;;16.30;99.90;;;;;;5026311;28;20214;-56
2023/08/30 06:19:47;;;;;;;7.47;5.10;;;16.30;99.90;;;;;;5031304;28;20294;-56
2023/08/30 06:22:13;;;;;;;4.93;4.53;;;16.40;99.90;;;;;;5029309;28;20264;-56
2023/08/30 06:24:39;;;;;;;5.67;5.13;;;16.40;99.90;;;;;;5034402;28;21188;-58
2023/08/30 06:27:05;;;;;;;6.33;5.73;;;16.10;99.90;;;;;;5032662;28;20662;-60
2023/08/30 06:29:30;;;;;;;5.40;4.90;;;16.40;99.90;;;;;;5033401;28;20281;-60
2023/08/30 06:31:56;;;;;;;5.50;5.00;;;16.40;99.90;;;;;;5033952;28;20620;-60
2023/08/30 06:34:21;;;;;;;6.87;5.57;;;16.40;99.90;;;;;;5032524;28;20217;-60
2023/08/30 06:36:47;;;;;;;6.63;5.73;;;16.30;99.90;;;;;;5033574;28;20332;-61
2023/08/30 06:39:13;;;;;;;7.77;5.73;;;16.30;99.90;;;;;;5029875;28;20203;-61
2023/08/30 06:41:38;;;;;;;8.30;6.10;;;16.30;99.90;;;;;;5036286;28;20582;-69
2023/08/30 06:44:04;;;;;;;8.63;6.03;;;16.50;99.90;;;;;;5022354;28;20226;-55
2023/08/30 06:46:30;;;;;;;7.63;6.50;;;16.60;99.90;;;;;;5027967;28;20286;-55
2023/08/30 06:48:55;;;;;;;8.57;6.63;;;16.60;99.90;;;;;;5029220;28;20243;-55
2023/08/30 06:51:20;;;;;;;6.00;5.50;;;16.60;99.90;;;;;;5023859;28;20207;-56
2023/08/30 06:53:46;;;;;;;5.97;5.37;;;16.60;99.90;;;;;;5032723;28;20693;-56
2023/08/30 06:56:12;;;;;;;7.53;5.57;;;16.60;99.90;;;;;;5030953;28;20246;-57
2023/08/30 06:58:38;;;;;;;5.33;4.83;;;16.60;99.90;;;;;;5028185;28;20630;-57
2023/08/30 07:01:04;;;;;;;4.87;4.33;;;16.70;99.90;;;;;;5030018;28;20199;-56
2023/08/30 07:03:29;;;;;;;5.00;4.50;;;16.60;99.90;;;;;;5025945;28;20211;-55
2023/08/30 07:05:55;;;;;;;3.53;3.27;;;16.60;99.90;;;;;;5032165;28;20203;-64
2023/08/30 07:08:21;;;;;;;4.47;3.20;;;16.50;99.90;;;;;;5028267;28;20937;-65
2023/08/30 07:10:46;;;;;;;3.70;3.40;;;16.60;99.90;;;;;;5024291;28;20200;-59
2023/08/30 07:13:12;;;;;;;3.20;2.90;;;16.40;99.90;;;;;;5036417;28;20237;-59
2023/08/30 07:15:42;;;;;;;5.73;3.20;;;16.60;99.90;;;;;;5037535;28;20692;-58
2023/08/30 07:18:08;;;;;;;3.37;3.07;;;16.80;99.90;;;;;;5027296;28;20203;-68
2023/08/30 07:20:34;;;;;;;2.60;2.40;;;16.90;99.90;;;;;;5024639;28;20866;-66
2023/08/30 07:23:01;;;;;;;4.37;3.27;;;16.90;99.90;;;;;;5038114;28;20198;-54
2023/08/30 07:25:26;;;;;;;3.67;2.80;;;17.00;99.90;;;;;;5040242;28;20769;-55
2023/08/30 07:27:52;;;;;;;2.70;2.50;;;17.00;99.90;;;;;;5027770;28;21004;-57
2023/08/30 07:30:17;;;;;;;3.37;2.10;;;16.80;99.90;;;;;;5026629;28;20289;-55
2023/08/30 07:32:43;;;;;;;3.97;2.90;;;16.80;99.90;;;;;;5022658;28;20233;-55
2023/08/30 07:35:09;;;;;;;3.23;2.57;;;16.90;99.90;;;;;;5032227;28;20210;-67
2023/08/30 07:37:34;;;;;;;5.03;2.87;;;17.00;99.90;;;;;;5024412;28;20208;-59
2023/08/30 07:40:00;;;;;;;5.17;2.57;;;17.10;99.90;;;;;;5029257;28;20207;-59
2023/08/30 07:42:26;;;;;;;2.70;2.20;;;17.10;99.90;;;;;;5032190;28;20870;-59
2023/08/30 07:44:51;;;;;;;3.53;2.70;;;16.90;99.90;;;;;;5024893;28;20213;-58
2023/08/30 07:47:17;;;;;;;2.60;2.50;;;16.80;99.90;;;;;;5033657;28;20462;-58
2023/08/30 07:49:42;;;;;;;3.10;2.77;;;16.80;99.90;;;;;;5028777;28;20202;-73
2023/08/30 07:52:10;;;;;;;2.93;2.73;;;16.90;99.90;;;;;;5025486;28;20862;-56
2023/08/30 07:54:37;;;;;;;3.70;2.87;;;16.90;99.90;;;;;;5025954;28;20234;-65
2023/08/30 07:57:03;;;;;;;2.70;2.50;;;16.70;99.90;;;;;;5029626;28;20194;-55
2023/08/30 07:59:29;;;;;;;2.50;2.30;;;16.50;99.90;;;;;;5030702;28;20222;-56
2023/08/30 08:01:55;;;;;;;3.03;2.83;;;16.50;99.90;;;;;;5031347;28;20209;-66
2023/08/30 08:04:21;;;;;;;2.97;2.10;;;16.60;99.90;;;;;;5026754;28;20627;-56
2023/08/30 08:06:47;;;;;;;2.63;2.43;;;16.70;99.90;;;;;;5032618;28;20557;-56
2023/08/30 08:09:12;;;;;;;2.83;2.60;;;16.80;99.90;;;;;;5024717;28;20187;-57
2023/08/30 08:11:43;;;;;;;3.23;2.43;;;16.80;99.90;;;;;;5030166;28;20206;-56
2023/08/30 08:14:09;;;;;;;2.60;2.40;;;16.80;99.90;;;;;;5037156;28;20203;-56
2023/08/30 08:16:34;;;;;;;3.23;2.90;;;16.90;99.90;;;;;;5036827;28;20200;-56
2023/08/30 08:19:01;;;;;;;4.30;3.17;;;16.90;99.90;;;;;;5016714;28;20656;-57
2023/08/30 08:21:27;;;;;;;3.47;3.07;;;17.00;99.90;;;;;;5029992;28;20198;-58
2023/08/30 08:23:52;;;;;;;3.10;2.80;;;17.00;99.90;;;;;;5027479;28;20204;-58
2023/08/30 08:26:18;;;;;;;2.90;2.70;;;17.10;99.90;;;;;;5021188;28;20198;-67
2023/08/30 08:28:44;;;;;;;3.03;2.53;;;17.10;99.90;;;;;;5027701;28;20250;-55
2023/08/30 08:31:10;;;;;;;3.70;3.20;;;17.20;99.90;;;;;;5031294;28;20200;-55
2023/08/30 08:33:35;;;;;;;4.50;2.30;;;17.20;99.90;;;;;;5026294;28;20219;-55
2023/08/30 08:36:01;;;;;;;3.07;2.03;;;17.30;99.90;;;;;;5023938;28;20665;-69
2023/08/30 08:38:26;;;;;;;2.07;1.97;;;17.10;99.90;;;;;;5022785;28;20198;-55
2023/08/30 08:41:03;;;;;;;2.60;2.40;;;17.10;99.90;;;;;;5027859;28;20571;-56
2023/08/30 08:43:29;;;;;;;2.67;2.47;;;17.20;99.90;;;;;;5032338;28;20725;-68
2023/08/30 08:45:59;;;;;;;2.27;1.97;;;17.00;99.90;;;;;;5030977;28;20269;-66
2023/08/30 08:48:27;;;;;;;4.00;2.63;;;17.20;99.90;;;;;;5032116;28;20736;-58
2023/08/30 08:50:54;;;;;;;4.60;2.17;;;17.40;99.90;;;;;;5026402;28;20213;-58
2023/08/30 08:53:20;;;;;;;2.73;2.60;;;17.50;99.90;;;;;;5028634;28;20329;-58
2023/08/30 08:55:47;;;;;;;2.40;2.20;;;17.40;99.90;;;;;;5035433;28;20209;-58
2023/08/30 08:58:14;;;;;;;3.10;2.43;;;17.50;99.90;;;;;;5033440;28;20563;-59
2023/08/30 09:00:44;;;;;;;3.57;2.37;;;17.40;99.90;;;;;;5026590;28;20654;-58
2023/08/30 09:03:10;;;;;;;2.63;2.43;;;17.50;99.90;;;;;;5029022;28;20755;-58
2023/08/30 09:05:38;;;;;;;3.23;2.20;;;17.60;99.90;;;;;;5032662;28;20254;-55
2023/08/30 09:08:05;;;;;;;3.33;2.70;;;17.80;99.90;;;;;;5021741;28;20277;-55
2023/08/30 09:10:34;;;;;;;3.63;2.40;;;17.90;99.90;;;;;;5031940;28;20583;-60
2023/08/30 09:13:00;;;;;;;4.53;3.40;;;18.10;99.90;;;;;;5039351;28;20270;-55
2023/08/30 09:15:38;;;;;;;3.73;2.93;;;18.20;99.90;;;;;;5035394;28;20191;-67
2023/08/30 09:18:04;;;;;;;3.20;2.93;;;18.00;99.90;;;;;;5029299;28;20209;-64
2023/08/30 09:20:29;;;;;;;4.13;3.10;;;17.90;99.90;;;;;;5036648;28;20208;-66
2023/08/30 09:22:56;;;;;;;3.43;3.13;;;17.60;99.90;;;;;;5036290;28;20214;-60
2023/08/30 09:25:27;;;;;;;4.20;3.37;;;17.20;99.90;;;;;;5036570;28;20219;-59
2023/08/30 09:27:59;;;;;;;3.70;3.20;;;17.00;99.90;;;;;;5032665;28;20750;-59
2023/08/30 09:30:26;;;;;;;5.53;3.13;;;17.10;99.90;;;;;;5033132;28;20273;-59
2023/08/30 09:32:51;;;;;;;5.67;3.00;;;17.30;99.90;;;;;;5032834;28;20212;-58
2023/08/30 09:35:17;;;;;;;4.30;3.40;;;17.50;99.90;;;;;;5043232;28;20225;-57
2023/08/30 09:37:46;;;;;;;3.47;3.17;;;17.50;99.90;;;;;;5035357;28;20700;-58
2023/08/30 09:40:11;;;;;;;3.90;3.17;;;17.60;99.90;;;;;;5030827;28;20205;-72
2023/08/30 09:42:42;;;;;;;3.40;3.10;;;17.90;99.90;;;;;;5028579;28;20619;-69
2023/08/30 09:45:18;;;;;;;3.23;2.83;;;17.90;99.90;;;;;;5022494;28;20220;-56
2023/08/30 09:47:49;;;;;;;2.93;2.73;;;17.90;99.90;;;;;;5028959;28;20220;-56
2023/08/30 09:50:18;;;;;;;4.27;3.30;;;18.00;99.90;;;;;;5035753;28;20208;-55
2023/08/30 09:52:46;;;;;;;4.37;3.23;;;18.20;99.90;;;;;;5028261;28;20884;-55
2023/08/30 09:55:11;;;;;;;4.23;2.37;;;18.50;99.90;;;;;;5024460;28;20191;-57
2023/08/30 09:57:38;;;;;;;3.27;2.90;;;18.50;99.90;;;;;;5031338;28;20249;-59
2023/08/30 10:00:06;;;;;;;3.47;2.50;;;18.40;99.90;;;;;;5035416;28;20207;-69
2023/08/30 10:02:33;;;;;;;2.83;2.30;;;18.30;99.90;;;;;;5017934;28;20201;-71
2023/08/30 10:04:59;;;;;;;3.60;2.60;;;18.50;99.90;;;;;;5025952;28;20232;-67
2023/08/30 10:07:25;;;;;;;2.87;2.67;;;18.60;99.90;;;;;;5030583;28;20215;-71
2023/08/30 10:09:53;;;;;;;3.57;3.10;;;18.60;99.90;;;;;;5034428;28;20201;-67
2023/08/30 10:12:22;;;;;;;3.07;2.77;;;18.60;99.90;;;;;;5031677;28;20222;-67
2023/08/30 10:14:47;;;;;;;4.83;2.50;;;18.70;99.90;;;;;;5038444;28;20205;-72
2023/08/30 10:17:17;;;;;;;4.17;2.47;;;18.70;99.90;;;;;;5036805;28;20203;-59
2023/08/30 10:19:45;;;;;;;2.77;2.13;;;18.90;99.90;;;;;;5027531;28;20396;-60
2023/08/30 10:22:17;;;;;;;3.80;2.53;;;19.00;99.90;;;;;;5035523;28;20203;-60
2023/08/30 10:24:51;;;;;;;1.83;1.73;;;19.20;99.90;;;;;;5033634;28;20820;-59
2023/08/30 10:27:17;;;;;;;3.20;2.57;;;19.20;99.90;;;;;;5030731;28;20198;-60
2023/08/30 10:29:44;;;;;;;3.10;2.27;;;19.00;99.90;;;;;;5033013;28;20260;-60
2023/08/30 10:32:10;;;;;;;2.73;1.50;;;19.20;99.90;;;;;;5037560;28;20221;-60
2023/08/30 10:34:36;;;;;;;5.40;2.60;;;19.50;99.90;;;;;;5029879;28;20204;-60
2023/08/30 10:37:06;;;;;;;5.03;2.90;;;19.40;99.90;;;;;;5026691;28;20283;-60
2023/08/30 10:39:39;;;;;;;2.90;2.13;;;19.20;99.90;;;;;;5024947;28;20290;-60
2023/08/30 10:42:15;;;;;;;3.70;2.80;;;19.20;99.90;;;;;;5025323;28;20714;-60
2023/08/30 10:45:06;;;;;;;2.40;2.17;;;19.40;99.90;;;;;;5026957;28;20244;-63
2023/08/30 10:47:37;;;;;;;6.07;4.37;;;19.70;99.90;;;;;;5030769;28;20224;-60
2023/08/30 10:50:11;;;;;;;2.60;2.40;;;19.80;99.90;;;;;;5035191;28;20568;-60
2023/08/30 10:52:36;;;;;;;2.47;2.20;;;20.10;99.90;;;;;;5029406;28;20213;-61
2023/08/30 10:55:14;;;;;;;3.80;1.63;;;20.20;99.90;;;;;;5028518;28;20550;-61
2023/08/30 10:57:44;;;;;;;2.17;1.97;;;20.00;99.90;;;;;;5029309;28;20564;-61
2023/08/30 11:00:17;;;;;;;1.80;1.70;;;20.00;99.90;;;;;;5032759;28;20256;-57
2023/08/30 11:02:48;;;;;;;7.83;2.73;;;20.50;99.90;;;;;;5025291;28;20198;-56
2023/08/30 11:05:16;;;;;;;1.73;1.63;;;20.70;99.90;;;;;;5034173;28;20198;-59
2023/08/30 11:07:46;;;;;;;10.83;2.07;;;20.60;99.90;;;;;;5020113;28;20206;-55
2023/08/30 11:10:12;;;;;;;2.00;1.47;;;20.50;99.90;;;;;;5025847;28;20674;-55
2023/08/30 11:12:41;;;;;;;14.03;2.20;;;20.50;99.90;;;;;;5031660;28;20230;-59
2023/08/30 11:15:09;;;;;;;3.90;1.83;;;20.80;99.90;;;;;;5033199;28;20196;-61
2023/08/30 11:17:34;;;;;;;2.47;1.73;;;20.70;99.90;;;;;;5030128;28;20198;-58
2023/08/30 11:20:16;;;;;;;13.10;2.37;;;20.90;99.90;;;;;;5028904;28;20205;-64
2023/08/30 11:22:43;;;;;;;1.80;1.70;;;20.40;99.90;;;;;;5024371;28;20233;-55
2023/08/30 11:25:11;;;;;;;3.03;1.43;;;20.30;99.90;;;;;;5029724;28;20212;-64
2023/08/30 11:27:38;;;;;;;2.70;2.03;;;20.20;99.90;;;;;;5028131;28;20215;-61
2023/08/30 11:30:05;;;;;;;1.97;1.80;;;20.00;99.90;;;;;;5029381;28;20190;-55
2023/08/30 11:32:38;;;;;;;3.40;1.80;;;20.10;99.90;;;;;;5033256;28;20224;-57
2023/08/30 11:35:04;;;;;;;1.50;1.40;;;20.30;99.90;;;;;;5024998;28;20198;-60
2023/08/30 11:37:30;;;;;;;4.20;1.40;;;20.40;99.90;;;;;;5028943;28;20219;-64
2023/08/30 11:39:56;;;;;;;3.13;2.10;;;20.10;99.90;;;;;;5033524;28;20223;-69
2023/08/30 11:42:22;;;;;;;2.63;1.30;;;20.00;99.90;;;;;;5030272;28;20217;-66
2023/08/30 11:44:48;;;;;;;4.87;1.83;;;20.10;99.90;;;;;;5030252;28;20205;-71
2023/08/30 11:47:24;;;;;;;4.50;2.03;;;20.20;99.90;;;;;;5026186;28;20205;-55
2023/08/30 11:49:51;;;;;;;2.50;1.67;;;20.30;99.90;;;;;;5036320;28;20957;-56
2023/08/30 11:52:19;;;;;;;1.47;1.43;;;20.40;99.90;;;;;;5026019;28;20210;-62
2023/08/30 11:54:50;;;;;;;1.77;1.67;;;20.60;99.90;;;;;;5028222;28;20198;-57
2023/08/30 11:57:15;;;;;;;3.93;1.60;;;20.70;99.90;;;;;;5028726;28;20210;-67
2023/08/30 11:59:41;;;;;;;2.10;1.67;;;20.90;99.90;;;;;;5027091;28;20834;-69
2023/08/30 12:02:07;;;;;;;2.37;2.17;;;20.90;99.90;;;;;;5031162;28;20205;-72
2023/08/30 12:04:40;;;;;;;2.07;1.97;;;20.90;99.90;;;;;;5028863;28;20218;-64
2023/08/30 12:07:06;;;;;;;2.43;1.93;;;21.00;99.90;;;;;;5030805;28;20195;-64
2023/08/30 12:09:31;;;;;;;3.23;1.73;;;21.10;99.90;;;;;;5033705;28;20876;-63
2023/08/30 12:12:10;;;;;;;2.27;2.07;;;20.90;99.90;;;;;;5033146;28;20252;-62
2023/08/30 12:14:36;;;;;;;3.83;2.53;;;20.80;99.90;;;;;;5022855;28;20195;-65
2023/08/30 12:17:03;;;;;;;3.03;1.93;;;20.90;99.90;;;;;;5023878;28;20201;-58
2023/08/30 12:19:29;;;;;;;4.73;1.97;;;20.80;99.90;;;;;;5023227;28;20202;-60
2023/08/30 12:21:54;;;;;;;3.93;2.17;;;20.70;99.90;;;;;;5025949;28;20199;-59
2023/08/30 12:24:20;;;;;;;3.37;2.07;;;20.80;99.90;;;;;;5020603;28;20201;-59
2023/08/30 12:26:45;;;;;;;3.17;1.97;;;20.70;99.90;;;;;;5028927;28;20238;-55
2023/08/30 12:29:11;;;;;;;2.13;1.93;;;20.40;99.90;;;;;;5028260;28;20569;-60
2023/08/30 12:31:37;;;;;;;3.47;2.37;;;20.50;99.90;;;;;;5028476;28;20959;-59
2023/08/30 12:34:03;;;;;;;2.10;1.87;;;20.30;99.90;;;;;;5031372;28;20272;-63
2023/08/30 12:36:29;;;;;;;1.70;1.60;;;20.10;99.90;;;;;;5029933;28;20198;-73
2023/08/30 12:38:54;;;;;;;2.43;2.00;;;19.80;99.90;;;;;;5035952;28;20215;-64
2023/08/30 12:41:22;;;;;;;2.60;2.40;;;19.90;99.90;;;;;;5022820;28;20211;-67
2023/08/30 12:43:50;;;;;;;2.03;1.93;;;19.90;99.90;;;;;;5037500;28;20255;-61
2023/08/30 12:46:15;;;;;;;2.43;2.20;;;19.90;99.90;;;;;;5032138;28;20201;-56